This is the latest recevied weather packets stored in our database for station/object WW1TA. If no packets are shown the sender has not sent any weather packets the latest 1 day(s).
| Time | Temp. | Humidity | Pressure | Rain* | Wind** | Luminosity | Snow |
|---|---|---|---|---|---|---|---|
| 1778075362 | 25° C | 65% | 1018.5 hPa | 0 mm | - | 508 W/m² | - |
| 1778075058 | 25° C | 65% | 1018.9 hPa | 0 mm | - | 328 W/m² | - |
| 1778074452 | 24.44° C | 66% | 1018.9 hPa | 0 mm | - | 111 W/m² | - |
| 1778073846 | 23.89° C | 70% | 1018.8 hPa | 0 mm | - | 66 W/m² | - |
| 1778072937 | 22.78° C | 74% | 1018.7 hPa | 0 mm | - | 57 W/m² | - |
| 1778072633 | 22.78° C | 75% | 1018.7 hPa | 0 mm | - | 51 W/m² | - |
| 1778071424 | 21.67° C | 80% | 1018.5 hPa | 0 mm | - | 48 W/m² | - |
| 1778070820 | 21.11° C | 82% | 1018.4 hPa | 0 mm | - | 46 W/m² | - |
| 1778070517 | 20.56° C | 84% | 1018.6 hPa | 0 mm | - | 43 W/m² | - |
| 1778069912 | 19.44° C | 91% | 1018.5 hPa | 0 mm | - | 40 W/m² | - |
| 1778069306 | 18.89° C | 97% | 1018.4 hPa | 0 mm | - | 40 W/m² | - |
| 1778068399 | 17.78° C | 98% | 1018.3 hPa | 0 mm | - | 42 W/m² | - |
| 1778066281 | 16.11° C | 98% | 1018.1 hPa | 0 mm | - | 22 W/m² | - |
| 1778065979 | 15.56° C | 98% | 1018 hPa | 0 mm | - | 21 W/m² | - |
| 1778065676 | 15.56° C | 98% | 1018.1 hPa | 0 mm | - | 18 W/m² | - |
| 1778065373 | 15.56° C | 98% | 1018.1 hPa | 0 mm | - | 16 W/m² | - |
| 1778064464 | 15.56° C | 98% | 1017.9 hPa | 0 mm | - | 9 W/m² | - |
| 1778063556 | 15.56° C | 97% | 1017.9 hPa | 0 mm | - | 1 W/m² | - |
| 1778062648 | 15.56° C | 97% | 1017.7 hPa | 0 mm | - | 0 W/m² | - |
| 1778061741 | 15.56° C | 97% | 1017.7 hPa | 0 mm | - | 0 W/m² | - |
| 1778061135 | 16.11° C | 97% | 1017.7 hPa | 0 mm | - | 0 W/m² | - |
| 1778060229 | 16.11° C | 96% | 1017.7 hPa | 0 mm | - | 0 W/m² | - |
| 1778059925 | 16.11° C | 96% | 1017.8 hPa | 0 mm | - | 0 W/m² | - |
| 1778059623 | 16.11° C | 96% | 1017.7 hPa | 0 mm | - | 0 W/m² | - |
| 1778058413 | 16.11° C | 95% | 1017.8 hPa | 0 mm | - | 0 W/m² | - |
* Rain latest hour (hover to see other rain measurements)
** Current wind speed in m/s (hover to see current wind gust speed)